createdAt,value
2022-09-02T00:01:40.173Z,100997.84
2022-09-02T00:04:12.517Z,100997.09
2022-09-02T00:06:41.377Z,100988.56
2022-09-02T00:09:13.680Z,100986.97
2022-09-02T00:11:43.178Z,100982.00
2022-09-02T00:14:15.357Z,100983.28
2022-09-02T00:16:51.056Z,100983.66
2022-09-02T00:19:21.303Z,100987.41
2022-09-02T00:21:50.066Z,100985.81
2022-09-02T00:24:19.644Z,100980.78
2022-09-02T00:26:48.705Z,100981.97
2022-09-02T00:29:17.228Z,100976.97
2022-09-02T00:31:47.132Z,100979.03
2022-09-02T00:34:15.414Z,100987.28
2022-09-02T00:36:43.687Z,100981.44
2022-09-02T00:39:11.928Z,100980.91
2022-09-02T00:41:43.217Z,100976.03
2022-09-02T00:44:13.529Z,100980.97
2022-09-02T00:46:41.917Z,100979.41
2022-09-02T00:49:13.721Z,100978.88
2022-09-02T00:51:47.291Z,100973.75
2022-09-02T00:54:17.212Z,100977.59
2022-09-02T00:56:48.725Z,100968.09
2022-09-02T00:59:24.174Z,100971.12
2022-09-02T01:01:52.345Z,100979.34
2022-09-02T01:04:20.426Z,100979.59
2022-09-02T01:06:49.456Z,100978.75
2022-09-02T01:09:18.661Z,100984.09
2022-09-02T01:11:55.269Z,100977.03
2022-09-02T01:14:24.133Z,100965.59
2022-09-02T01:17:02.271Z,100969.13
2022-09-02T01:19:34.660Z,100965.81
2022-09-02T01:22:15.788Z,100968.47
2022-09-02T01:24:44.299Z,100970.31
2022-09-02T01:27:16.063Z,100960.56
2022-09-02T01:29:44.823Z,100958.03
2022-09-02T01:32:13.097Z,100959.84
2022-09-02T01:34:41.683Z,100952.66
2022-09-02T01:37:11.518Z,100956.94
2022-09-02T01:39:40.188Z,100953.53
2022-09-02T01:42:08.478Z,100947.31
2022-09-02T01:44:43.953Z,100955.56
2022-09-02T01:47:12.113Z,100946.06
2022-09-02T01:49:40.688Z,100948.97
2022-09-02T01:52:10.963Z,100950.25
2022-09-02T01:54:39.828Z,100948.78
2022-09-02T01:57:09.026Z,100942.84
2022-09-02T01:59:37.035Z,100956.31
2022-09-02T02:02:05.917Z,100945.63
2022-09-02T02:04:35.162Z,100943.09
2022-09-02T02:07:05.862Z,100951.22
2022-09-02T02:09:35.539Z,100944.16
2022-09-02T02:12:06.215Z,100938.19
2022-09-02T02:14:34.577Z,100940.94
2022-09-02T02:17:03.154Z,100941.06
2022-09-02T02:19:31.128Z,100936.81
2022-09-02T02:21:59.648Z,100938.75
2022-09-02T02:24:27.896Z,100935.41
2022-09-02T02:26:57.256Z,100927.63
2022-09-02T02:29:25.185Z,100932.34
2022-09-02T02:31:53.495Z,100928.94
2022-09-02T02:34:21.474Z,100930.84
2022-09-02T02:36:49.579Z,100932.03
2022-09-02T02:39:17.702Z,100926.78
2022-09-02T02:41:46.615Z,100932.25
2022-09-02T02:44:16.290Z,100928.06
2022-09-02T02:46:45.246Z,100925.63
2022-09-02T02:49:13.877Z,100924.78
2022-09-02T02:51:42.219Z,100928.28
2022-09-02T02:54:11.258Z,100922.22
2022-09-02T02:56:39.621Z,100923.06
2022-09-02T02:59:08.179Z,100921.34
2022-09-02T03:01:37.939Z,100929.47
2022-09-02T03:04:06.774Z,100923.38
2022-09-02T03:06:35.749Z,100922.63
2022-09-02T03:09:05.249Z,100921.03
2022-09-02T03:11:33.745Z,100915.81
2022-09-02T03:14:02.322Z,100916.78
2022-09-02T03:16:30.663Z,100917.94
2022-09-02T03:19:00.789Z,100916.13
2022-09-02T03:21:28.936Z,100919.63
2022-09-02T03:24:07.630Z,100914.28
2022-09-02T03:26:35.597Z,100923.09
2022-09-02T03:29:04.504Z,100916.84
2022-09-02T03:31:33.011Z,100918.66
2022-09-02T03:34:02.592Z,100915.06
2022-09-02T03:36:33.336Z,100916.00
2022-09-02T03:39:02.635Z,100916.13
2022-09-02T03:41:30.707Z,100908.09
2022-09-02T03:43:59.203Z,100911.63
2022-09-02T03:46:29.520Z,100916.97
2022-09-02T03:48:57.818Z,100910.66
2022-09-02T03:51:28.462Z,100901.28
2022-09-02T03:53:57.146Z,100908.75
2022-09-02T03:56:25.942Z,100906.06
2022-09-02T03:58:54.797Z,100910.78
2022-09-02T04:01:27.945Z,100909.81
2022-09-02T04:03:58.906Z,100909.81
2022-09-02T04:06:32.656Z,100908.84
2022-09-02T04:09:01.968Z,100911.63
2022-09-02T04:11:30.359Z,100917.09
2022-09-02T04:13:59.866Z,100916.34
2022-09-02T04:16:28.775Z,100921.87
2022-09-02T04:18:59.605Z,100916.00
2022-09-02T04:21:32.994Z,100908.00
2022-09-02T04:24:01.589Z,100908.13
2022-09-02T04:26:30.588Z,100909.28
2022-09-02T04:28:58.794Z,100909.16
2022-09-02T04:31:29.961Z,100910.91
2022-09-02T04:33:59.998Z,100918.91
2022-09-02T04:36:30.785Z,100915.47
2022-09-02T04:39:00.694Z,100920.59
2022-09-02T04:41:32.014Z,100917.81
2022-09-02T04:44:01.080Z,100914.31
2022-09-02T04:46:34.866Z,100912.38
2022-09-02T04:49:04.187Z,100920.06
2022-09-02T04:51:34.042Z,100913.56
2022-09-02T04:54:02.675Z,100924.13
2022-09-02T04:56:32.524Z,100913.97
2022-09-02T04:59:01.574Z,100915.59
2022-09-02T05:01:32.465Z,100919.63
2022-09-02T05:04:02.960Z,100915.81
2022-09-02T05:06:34.738Z,100919.72
2022-09-02T05:09:05.012Z,100923.69
2022-09-02T05:11:34.170Z,100923.38
2022-09-02T05:14:06.592Z,100926.56
2022-09-02T05:16:37.558Z,100921.13
2022-09-02T05:19:09.629Z,100922.06
2022-09-02T05:21:42.717Z,100924.31
2022-09-02T05:24:11.618Z,100920.22
2022-09-02T05:26:43.270Z,100917.12
2022-09-02T05:29:12.580Z,100918.53
2022-09-02T05:31:42.022Z,100919.75
2022-09-02T05:34:11.912Z,100925.34
2022-09-02T05:36:41.512Z,100932.81
2022-09-02T05:39:09.630Z,100930.53
2022-09-02T05:41:38.631Z,100930.00
2022-09-02T05:44:08.040Z,100934.38
2022-09-02T05:46:37.525Z,100938.94
2022-09-02T05:49:09.054Z,100930.22
2022-09-02T05:51:45.667Z,100927.81
2022-09-02T05:54:16.703Z,100933.22
2022-09-02T05:56:47.048Z,100934.44
2022-09-02T05:59:15.624Z,100929.38
2022-09-02T06:01:44.404Z,100936.72
2022-09-02T06:04:12.778Z,100926.28
2022-09-02T06:06:42.707Z,100926.59
2022-09-02T06:09:12.964Z,100926.72
2022-09-02T06:11:45.324Z,100926.88
2022-09-02T06:14:16.029Z,100930.62
2022-09-02T06:16:45.139Z,100933.22
2022-09-02T06:19:19.681Z,100933.22
2022-09-02T06:21:51.219Z,100929.56
2022-09-02T06:24:19.203Z,100930.53
2022-09-02T06:26:50.049Z,100932.88
2022-09-02T06:29:26.774Z,100936.13
2022-09-02T06:31:55.947Z,100935.00
2022-09-02T06:34:27.221Z,100935.00
2022-09-02T06:36:57.675Z,100926.06
2022-09-02T06:39:26.902Z,100924.75
2022-09-02T06:41:55.799Z,100928.25
2022-09-02T06:44:24.271Z,100936.25
2022-09-02T06:46:56.538Z,100925.09
2022-09-02T06:49:26.263Z,100923.34
2022-09-02T06:51:56.830Z,100918.78
2022-09-02T06:54:27.526Z,100924.41
2022-09-02T06:56:57.355Z,100921.09
2022-09-02T06:59:25.867Z,100919.63
2022-09-02T07:01:54.241Z,100920.38
2022-09-02T07:04:40.276Z,100928.78
2022-09-02T07:07:09.513Z,100919.44
2022-09-02T07:09:40.560Z,100921.75
2022-09-02T07:12:09.376Z,100914.84
2022-09-02T07:14:39.673Z,100919.50
2022-09-02T07:17:09.684Z,100925.16
2022-09-02T07:19:38.386Z,100918.75
2022-09-02T07:22:07.594Z,100920.59
2022-09-02T07:24:40.204Z,100918.66
2022-09-02T07:27:08.664Z,100913.47
2022-09-02T07:29:37.073Z,100916.38
2022-09-02T07:32:06.135Z,100917.59
2022-09-02T07:34:34.249Z,100919.31
2022-09-02T07:37:07.337Z,100928.78
2022-09-02T07:39:38.143Z,100917.66
2022-09-02T07:42:08.382Z,100919.34
2022-09-02T07:44:36.727Z,100924.91
2022-09-02T07:47:06.662Z,100929.22
2022-09-02T07:52:25.341Z,100918.25
2022-09-02T07:54:55.503Z,100928.19
2022-09-02T07:57:25.394Z,100928.16
2022-09-02T07:59:54.067Z,100922.13
2022-09-02T08:02:22.070Z,100928.63
2022-09-02T08:04:51.186Z,100921.87
2022-09-02T08:07:24.141Z,100921.78
2022-09-02T08:09:52.514Z,100922.16
2022-09-02T08:12:22.281Z,100922.69
2022-09-02T08:14:51.966Z,100924.38
2022-09-02T08:17:20.270Z,100923.03
2022-09-02T08:19:48.265Z,100923.06
2022-09-02T08:22:16.215Z,100921.37
2022-09-02T08:24:44.362Z,100918.81
2022-09-02T08:27:12.348Z,100922.03
2022-09-02T08:29:40.212Z,100922.00
2022-09-02T08:32:09.893Z,100927.56
2022-09-02T08:34:37.834Z,100922.97
2022-09-02T08:37:06.691Z,100919.34
2022-09-02T08:39:35.013Z,100913.38
2022-09-02T08:42:09.591Z,100915.69
2022-09-02T08:44:40.057Z,100918.37
2022-09-02T08:47:15.262Z,100915.47
2022-09-02T08:49:47.136Z,100919.28
2022-09-02T08:52:22.425Z,100918.56
2022-09-02T08:54:55.515Z,100911.69
2022-09-02T08:57:25.141Z,100908.00
2022-09-02T08:59:54.088Z,100902.75
2022-09-02T09:02:29.691Z,100897.00
2022-09-02T09:05:20.523Z,100892.81
2022-09-02T09:08:00.557Z,100893.78
2022-09-02T09:10:37.031Z,100896.91
2022-09-02T09:13:37.196Z,100895.75
2022-09-02T09:16:17.775Z,100885.66
2022-09-02T09:18:53.879Z,100886.22
2022-09-02T09:23:56.600Z,100885.66
2022-09-02T09:26:30.172Z,100879.53
2022-09-02T09:28:59.650Z,100883.50
2022-09-02T09:31:31.285Z,100877.06
2022-09-02T09:34:02.659Z,100883.84
2022-09-02T09:36:53.531Z,100876.00
2022-09-02T09:39:27.309Z,100875.44
2022-09-02T09:41:57.334Z,100871.09
2022-09-02T09:44:39.222Z,100863.84
2022-09-02T09:47:14.720Z,100860.81
2022-09-02T09:49:47.447Z,100858.06
2022-09-02T09:52:23.934Z,100856.53
2022-09-02T09:55:12.781Z,100846.84
2022-09-02T09:57:44.586Z,100851.44
2022-09-02T10:00:19.926Z,100854.47
2022-09-02T10:02:50.429Z,100853.28
2022-09-02T10:05:30.687Z,100851.66
2022-09-02T10:08:01.946Z,100847.94
2022-09-02T10:10:32.322Z,100851.25
2022-09-02T10:13:16.891Z,100855.59
2022-09-02T10:15:58.391Z,100852.53
2022-09-02T10:18:36.518Z,100848.84
2022-09-02T10:21:15.121Z,100853.97
2022-09-02T10:23:52.698Z,100854.53
2022-09-02T10:26:29.865Z,100848.09
2022-09-02T10:29:39.966Z,100845.75
2022-09-02T10:32:24.482Z,100835.97
2022-09-02T10:35:04.818Z,100831.31
2022-09-02T10:37:44.111Z,100827.91
2022-09-02T10:40:15.944Z,100837.53
2022-09-02T10:43:02.610Z,100822.25
2022-09-02T10:45:35.921Z,100827.81
2022-09-02T10:48:22.465Z,100821.19
2022-09-02T10:50:56.724Z,100826.06
2022-09-02T10:53:38.812Z,100831.75
2022-09-02T10:56:12.116Z,100813.00
2022-09-02T10:58:49.770Z,100829.25
2022-09-02T11:01:24.602Z,100824.63
2022-09-02T11:04:02.718Z,100817.69
2022-09-02T11:06:52.080Z,100822.09
2022-09-02T11:09:32.680Z,100825.47
2022-09-02T11:12:07.634Z,100819.16
2022-09-02T11:14:41.816Z,100818.47
2022-09-02T11:17:24.467Z,100806.34
2022-09-02T11:19:58.784Z,100804.59
2022-09-02T11:22:32.442Z,100804.16
2022-09-02T11:25:09.088Z,100799.19
2022-09-02T11:27:43.999Z,100793.75
2022-09-02T11:30:17.666Z,100802.75
2022-09-02T11:32:51.738Z,100791.78
2022-09-02T11:35:27.388Z,100788.88
2022-09-02T11:38:01.982Z,100795.00
2022-09-02T11:40:37.713Z,100786.66
2022-09-02T11:43:23.492Z,100789.41
2022-09-02T11:46:27.955Z,100782.03
2022-09-02T11:49:32.832Z,100790.03
2022-09-02T11:52:40.784Z,100787.16
2022-09-02T11:55:12.643Z,100774.12
2022-09-02T11:57:41.891Z,100768.84
2022-09-02T12:00:26.597Z,100775.59
2022-09-02T12:03:35.499Z,100768.25
2022-09-02T12:06:09.496Z,100765.47
2022-09-02T12:09:12.110Z,100763.16
2022-09-02T12:11:53.141Z,100766.13
2022-09-02T12:15:08.191Z,100765.19
2022-09-02T12:17:40.720Z,100760.19
2022-09-02T12:20:11.638Z,100763.88
2022-09-02T12:22:42.068Z,100759.37
2022-09-02T12:25:40.407Z,100756.63
2022-09-02T12:28:26.371Z,100753.16
2022-09-02T12:31:15.767Z,100748.78
2022-09-02T12:33:51.679Z,100742.69
2022-09-02T12:36:48.808Z,100747.00
2022-09-02T12:39:54.524Z,100744.66
2022-09-02T12:42:28.942Z,100737.66
2022-09-02T12:45:07.316Z,100729.00
2022-09-02T12:47:50.266Z,100736.31
2022-09-02T12:50:26.448Z,100729.78
2022-09-02T12:53:12.746Z,100723.34
2022-09-02T12:55:55.084Z,100719.81
2022-09-02T12:58:24.138Z,100719.44
2022-09-02T13:01:01.100Z,100712.69
2022-09-02T13:03:42.426Z,100708.03
2022-09-02T13:06:20.917Z,100708.91
2022-09-02T13:09:10.646Z,100704.06
2022-09-02T13:12:19.842Z,100702.59
2022-09-02T13:14:59.894Z,100700.91
2022-09-02T13:17:42.236Z,100698.37
2022-09-02T13:20:53.699Z,100705.09
2022-09-02T13:24:00.379Z,100694.97
2022-09-02T13:26:54.729Z,100700.47
2022-09-02T13:29:46.409Z,100700.16
2022-09-02T13:32:22.113Z,100702.31
2022-09-02T13:34:54.998Z,100693.66
2022-09-02T13:37:31.855Z,100690.09
2022-09-02T13:40:05.053Z,100685.72
2022-09-02T13:42:33.330Z,100685.88
2022-09-02T13:45:12.814Z,100684.22
2022-09-02T13:47:44.528Z,100686.16
2022-09-02T13:50:14.391Z,100685.16
2022-09-02T13:53:45.226Z,100677.34
2022-09-02T13:55:35.539Z,100691.03
2022-09-02T13:58:06.252Z,100679.03
2022-09-02T14:00:37.551Z,100684.03
2022-09-02T14:03:07.869Z,100675.81
2022-09-02T14:05:40.947Z,100665.09
2022-09-02T14:08:15.461Z,100673.53
2022-09-02T14:10:45.983Z,100664.72
2022-09-02T14:13:16.262Z,100660.72
2022-09-02T14:15:44.371Z,100655.28
2022-09-02T14:18:18.036Z,100664.97
2022-09-02T14:21:00.280Z,100667.22
2022-09-02T14:23:30.441Z,100662.88
2022-09-02T14:26:01.825Z,100668.50
2022-09-02T14:28:32.674Z,100668.66
2022-09-02T14:31:02.956Z,100665.44
2022-09-02T14:33:43.236Z,100660.66
2022-09-02T14:36:30.746Z,100666.78
2022-09-02T14:39:12.269Z,100660.53
2022-09-02T14:41:48.188Z,100658.66
2022-09-02T14:44:24.596Z,100655.56
2022-09-02T14:46:56.808Z,100657.25
2022-09-02T14:49:28.287Z,100660.53
2022-09-02T14:51:59.769Z,100656.75
2022-09-02T14:54:37.069Z,100649.69
2022-09-02T14:57:20.143Z,100646.06
2022-09-02T14:59:48.151Z,100649.12
2022-09-02T15:02:24.973Z,100650.81
2022-09-02T15:04:53.337Z,100650.78
2022-09-02T15:07:21.664Z,100649.31
2022-09-02T15:09:51.328Z,100643.56
2022-09-02T15:12:24.646Z,100647.78
2022-09-02T15:14:53.158Z,100642.09
2022-09-02T15:17:21.790Z,100646.50
2022-09-02T15:19:49.740Z,100638.09
2022-09-02T15:22:20.025Z,100645.22
2022-09-02T15:24:49.157Z,100638.75
2022-09-02T15:27:21.592Z,100640.66
2022-09-02T15:29:51.360Z,100628.19
2022-09-02T15:32:19.539Z,100641.31
2022-09-02T15:34:47.616Z,100630.50
2022-09-02T15:37:15.692Z,100630.00
2022-09-02T15:39:44.879Z,100627.19
2022-09-02T15:42:12.890Z,100629.19
2022-09-02T15:44:40.736Z,100628.75
2022-09-02T15:47:10.270Z,100628.62
2022-09-02T15:49:38.319Z,100616.16
2022-09-02T15:52:06.304Z,100626.44
2022-09-02T15:54:34.509Z,100627.19
2022-09-02T15:57:02.452Z,100629.41
2022-09-02T15:59:30.324Z,100621.72
2022-09-02T16:01:59.514Z,100622.72
2022-09-02T16:04:30.154Z,100619.94
2022-09-02T16:06:58.528Z,100617.56
2022-09-02T16:09:26.418Z,100617.50
2022-09-02T16:11:56.129Z,100619.84
2022-09-02T16:14:25.884Z,100626.06
2022-09-02T16:16:55.863Z,100616.41
2022-09-02T16:19:29.645Z,100630.81
2022-09-02T16:22:00.139Z,100609.81
2022-09-02T16:24:28.485Z,100612.25
2022-09-02T16:26:56.395Z,100616.19
2022-09-02T16:29:27.105Z,100613.94
2022-09-02T16:32:14.401Z,100611.97
2022-09-02T16:34:45.375Z,100611.84
2022-09-02T16:37:14.981Z,100610.66
2022-09-02T16:39:43.467Z,100612.78
2022-09-02T16:42:11.556Z,100610.22
2022-09-02T16:44:41.513Z,100593.22
2022-09-02T16:47:09.513Z,100603.37
2022-09-02T16:49:41.990Z,100607.69
2022-09-02T16:52:09.903Z,100605.25
2022-09-02T16:54:41.166Z,100597.69
2022-09-02T16:57:09.743Z,100596.37
2022-09-02T16:59:37.596Z,100587.56
2022-09-02T17:02:05.861Z,100591.69
2022-09-02T17:04:34.054Z,100597.13
2022-09-02T17:07:02.027Z,100588.09
2022-09-02T17:09:29.994Z,100584.62
2022-09-02T17:11:59.425Z,100583.13
2022-09-02T17:14:27.688Z,100588.25
2022-09-02T17:16:55.642Z,100586.78
2022-09-02T17:19:27.218Z,100584.12
2022-09-02T17:21:57.875Z,100584.84
2022-09-02T17:24:30.465Z,100585.63
2022-09-02T17:27:00.515Z,100580.28
2022-09-02T17:29:48.891Z,100582.34
2022-09-02T17:32:17.587Z,100582.59
2022-09-02T17:34:45.767Z,100582.00
2022-09-02T17:37:13.738Z,100587.47
2022-09-02T17:39:41.743Z,100590.06
2022-09-02T17:42:10.504Z,100586.22
2022-09-02T17:44:40.539Z,100591.69
2022-09-02T17:47:10.653Z,100595.59
2022-09-02T17:49:42.222Z,100590.19
2022-09-02T17:52:11.414Z,100591.06
2022-09-02T17:54:41.230Z,100594.62
2022-09-02T17:57:23.629Z,100590.28
2022-09-02T18:00:03.204Z,100586.47
2022-09-02T18:03:22.559Z,100590.41
2022-09-02T18:06:00.534Z,100582.31
2022-09-02T18:08:36.157Z,100586.91
2022-09-02T18:11:07.428Z,100590.47
2022-09-02T18:13:45.170Z,100586.09
2022-09-02T18:16:25.693Z,100590.31
2022-09-02T18:19:03.873Z,100589.66
2022-09-02T18:21:43.103Z,100597.25
2022-09-02T18:24:16.603Z,100599.84
2022-09-02T18:26:57.386Z,100609.66
2022-09-02T18:29:45.918Z,100607.78
2022-09-02T18:32:26.246Z,100600.03
2022-09-02T18:35:05.861Z,100607.81
2022-09-02T18:37:46.177Z,100611.88
2022-09-02T18:40:25.639Z,100612.22
2022-09-02T18:43:07.094Z,100606.63
2022-09-02T18:45:44.057Z,100614.75
2022-09-02T18:48:14.565Z,100613.56
2022-09-02T18:50:51.835Z,100609.16
2022-09-02T18:53:24.260Z,100620.47
2022-09-02T18:55:53.976Z,100612.00
2022-09-02T18:58:35.116Z,100607.97
2022-09-02T19:01:07.987Z,100618.09
2022-09-02T19:03:38.061Z,100622.84
2022-09-02T19:06:17.675Z,100620.63
2022-09-02T19:08:46.027Z,100621.97
2022-09-02T19:11:16.523Z,100630.59
2022-09-02T19:13:47.788Z,100627.72
2022-09-02T19:16:19.988Z,100626.34
2022-09-02T19:18:49.348Z,100627.88
2022-09-02T19:21:23.065Z,100626.66
2022-09-02T19:23:51.343Z,100621.91
2022-09-02T19:26:19.752Z,100632.38
2022-09-02T19:28:49.298Z,100637.75
2022-09-02T19:31:22.749Z,100638.69
2022-09-02T19:33:54.186Z,100641.34
2022-09-02T19:36:26.348Z,100638.47
2022-09-02T19:38:59.968Z,100636.94
2022-09-02T19:41:28.089Z,100641.66
2022-09-02T19:43:56.219Z,100641.28
2022-09-02T19:47:11.778Z,100633.66
2022-09-02T19:49:13.596Z,100642.25
2022-09-02T19:51:42.869Z,100635.62
2022-09-02T19:54:13.128Z,100634.28
2022-09-02T19:56:41.399Z,100635.75
2022-09-02T19:59:10.910Z,100640.78
2022-09-02T20:01:40.509Z,100642.09
2022-09-02T20:04:08.776Z,100645.12
2022-09-02T20:06:36.677Z,100639.53
2022-09-02T20:09:05.131Z,100643.84
2022-09-02T20:11:34.395Z,100650.84
2022-09-02T20:14:05.609Z,100649.66
2022-09-02T20:16:34.358Z,100650.44
2022-09-02T20:19:03.947Z,100651.19
2022-09-02T20:21:36.617Z,100647.97
2022-09-02T20:24:07.945Z,100651.13
2022-09-02T20:26:47.676Z,100650.44
2022-09-02T20:29:27.190Z,100645.19
2022-09-02T20:32:05.545Z,100659.53
2022-09-02T20:34:53.021Z,100652.44
2022-09-02T20:37:33.317Z,100652.28
2022-09-02T20:40:34.647Z,100659.84
2022-09-02T20:43:29.616Z,100656.69
2022-09-02T20:46:01.844Z,100654.81
2022-09-02T20:48:52.794Z,100655.00
2022-09-02T20:51:27.620Z,100655.84
2022-09-02T20:54:21.275Z,100660.69
2022-09-02T20:56:58.880Z,100659.00
2022-09-02T20:59:34.109Z,100662.69
2022-09-02T21:02:03.832Z,100654.75
2022-09-02T21:04:39.039Z,100657.44
2022-09-02T21:07:14.391Z,100654.22
2022-09-02T21:09:49.234Z,100656.91
2022-09-02T21:12:24.562Z,100661.47
2022-09-02T21:15:02.288Z,100658.94
2022-09-02T21:17:38.601Z,100663.06
2022-09-02T21:20:19.014Z,100662.53
2022-09-02T21:22:53.317Z,100659.59
2022-09-02T21:25:26.327Z,100664.59
2022-09-02T21:27:58.064Z,100665.72
2022-09-02T21:30:29.112Z,100660.28
2022-09-02T21:33:00.046Z,100659.53
2022-09-02T21:35:30.076Z,100665.41
2022-09-02T21:38:03.946Z,100664.72
2022-09-02T21:40:45.702Z,100664.31
2022-09-02T21:43:31.135Z,100665.31
2022-09-02T21:46:10.943Z,100656.84
2022-09-02T21:48:55.433Z,100664.53
2022-09-02T21:51:30.511Z,100656.75
2022-09-02T21:54:17.752Z,100655.34
2022-09-02T21:57:00.610Z,100656.34
2022-09-02T21:59:46.608Z,100647.19
2022-09-02T22:02:24.457Z,100651.25
2022-09-02T22:05:01.488Z,100652.56
2022-09-02T22:07:38.888Z,100651.84
2022-09-02T22:10:20.692Z,100649.47
2022-09-02T22:12:52.550Z,100654.00
2022-09-02T22:15:27.968Z,100650.03
2022-09-02T22:18:04.658Z,100645.66
2022-09-02T22:20:44.085Z,100649.50
2022-09-02T22:23:23.771Z,100649.66
2022-09-02T22:25:55.567Z,100644.84
2022-09-02T22:28:32.338Z,100649.38
2022-09-02T22:31:09.170Z,100644.31
2022-09-02T22:33:48.962Z,100643.63
2022-09-02T22:36:28.828Z,100642.16
2022-09-02T22:38:58.147Z,100643.16
2022-09-02T22:41:36.357Z,100645.16
2022-09-02T22:44:08.377Z,100648.16
2022-09-02T22:47:02.975Z,100640.22
2022-09-02T22:49:52.707Z,100639.66
2022-09-02T22:52:45.302Z,100636.13
2022-09-02T22:55:14.424Z,100632.72
2022-09-02T22:57:54.005Z,100636.13
2022-09-02T23:00:23.032Z,100631.44
2022-09-02T23:03:01.643Z,100629.75
2022-09-02T23:05:49.421Z,100625.34
2022-09-02T23:08:20.425Z,100634.44
2022-09-02T23:10:56.966Z,100630.59
2022-09-02T23:13:41.429Z,100632.44
2022-09-02T23:16:19.931Z,100632.72
2022-09-02T23:19:04.215Z,100629.03
2022-09-02T23:21:39.491Z,100636.41
2022-09-02T23:24:19.887Z,100627.75
2022-09-02T23:26:58.229Z,100632.44
2022-09-02T23:29:27.793Z,100628.75
2022-09-02T23:32:32.705Z,100632.44
2022-09-02T23:35:17.386Z,100626.34
2022-09-02T23:38:05.374Z,100630.88
2022-09-02T23:40:39.646Z,100630.75
2022-09-02T23:43:07.939Z,100624.50
2022-09-02T23:45:37.835Z,100630.75
2022-09-02T23:48:22.422Z,100621.13
2022-09-02T23:51:06.311Z,100619.28
2022-09-02T23:53:41.812Z,100617.47
2022-09-02T23:56:23.539Z,100614.62
2022-09-02T23:59:09.195Z,100614.62
